Time;durP1;ratioP1;P1;durP2;ratioP2;P2;SDS_P1;SDS_P2;PMS_P1;PMS_P2;Temp;Humidity;BMP_temperature;BMP_pressure;BME280_temperature;BME280_humidity;BME280_pressure;Samples;Min_cycle;Max_cycle;Signal;HPM_P1;HPM_P2
2021/12/24 00:01:22;;;;;;;28.70;18.00;;;8.00;99.90;;;;;;4165186;28;20199;-66
2021/12/24 00:03:23;;;;;;;28.63;17.67;;;8.00;99.90;;;;;;4165675;28;20025;-66
2021/12/24 00:05:24;;;;;;;30.77;16.67;;;8.10;99.90;;;;;;4167917;28;20450;-66
2021/12/24 00:07:25;;;;;;;31.08;18.00;;;8.10;99.90;;;;;;4168389;28;20036;-66
2021/12/24 00:09:31;;;;;;;25.42;14.98;;;8.10;99.90;;;;;;4168319;28;20065;-66
2021/12/24 00:11:34;;;;;;;28.50;16.20;;;8.10;99.90;;;;;;4167825;28;20056;-66
2021/12/24 00:13:40;;;;;;;30.08;17.50;;;8.10;99.90;;;;;;4168639;28;20057;-66
2021/12/24 00:18:12;;;;;;;25.25;15.52;;;8.10;99.90;;;;;;4168304;28;20041;-66
2021/12/24 00:22:47;;;;;;;24.67;15.43;;;8.10;99.90;;;;;;4168393;28;20381;-66
2021/12/24 00:36:33;;;;;;;22.95;14.88;;;8.20;99.90;;;;;;4167486;28;20025;-66
2021/12/24 00:38:33;;;;;;;22.60;14.00;;;8.10;99.90;;;;;;4168170;28;20479;-66
2021/12/24 00:40:38;;;;;;;22.92;14.75;;;8.20;99.90;;;;;;4168030;28;20091;-67
2021/12/24 00:42:43;;;;;;;23.67;14.60;;;8.20;99.90;;;;;;4168441;28;20029;-66
2021/12/24 00:44:44;;;;;;;22.58;13.85;;;8.20;99.90;;;;;;4167932;28;20030;-66
2021/12/24 00:46:44;;;;;;;21.77;13.52;;;8.20;99.90;;;;;;4167593;28;20148;-66
2021/12/24 00:48:46;;;;;;;21.50;14.27;;;8.20;99.90;;;;;;4167873;28;20120;-67
2021/12/24 00:52:57;;;;;;;22.08;13.95;;;8.20;99.90;;;;;;4166507;28;20038;-66
2021/12/24 00:55:09;;;;;;;23.63;14.23;;;8.20;99.90;;;;;;4159363;28;20029;-66
2021/12/24 00:57:09;;;;;;;22.25;14.40;;;8.20;99.90;;;;;;4160155;28;20051;-66
2021/12/24 00:59:10;;;;;;;23.38;15.15;;;8.20;99.90;;;;;;4159458;28;20033;-66
2021/12/24 01:01:13;;;;;;;19.55;13.32;;;8.20;99.90;;;;;;4160141;28;20054;-66
2021/12/24 01:03:14;;;;;;;20.42;13.45;;;8.30;99.90;;;;;;4143180;28;20025;-66
2021/12/24 01:05:16;;;;;;;21.35;13.85;;;8.20;99.90;;;;;;4160872;28;20030;-66
2021/12/24 01:07:16;;;;;;;22.70;14.30;;;8.20;99.90;;;;;;4165129;28;20057;-66
2021/12/24 01:09:17;;;;;;;20.38;13.00;;;8.30;99.90;;;;;;4159588;28;20291;-66
2021/12/24 01:11:17;;;;;;;19.70;13.02;;;8.30;99.90;;;;;;4158594;28;20034;-66
2021/12/24 01:13:19;;;;;;;18.65;12.38;;;8.30;99.90;;;;;;4159265;28;20033;-66
2021/12/24 01:15:19;;;;;;;19.42;13.15;;;8.30;99.90;;;;;;4157883;28;20038;-67
2021/12/24 01:19:30;;;;;;;19.98;13.15;;;8.30;99.90;;;;;;4157789;28;20036;-66
2021/12/24 01:22:24;;;;;;;19.10;12.50;;;8.30;99.90;;;;;;4158745;28;20021;-66
2021/12/24 01:24:08;;;;;;;19.65;12.55;;;8.30;99.90;;;;;;4159066;28;20110;-66
2021/12/24 01:26:13;;;;;;;19.48;13.57;;;8.30;99.90;;;;;;4158549;28;20041;-66
2021/12/24 01:40:53;;;;;;;20.25;12.38;;;8.40;99.90;;;;;;4156855;28;20026;-67
2021/12/24 01:45:01;;;;;;;20.87;13.60;;;8.40;99.90;;;;;;4141514;28;20400;-66
2021/12/24 01:47:05;;;;;;;18.27;13.18;;;8.40;99.90;;;;;;4158238;28;20265;-66
2021/12/24 01:49:06;;;;;;;19.25;12.90;;;8.40;99.90;;;;;;4163162;28;20471;-67
2021/12/24 01:51:06;;;;;;;19.52;12.27;;;8.40;99.90;;;;;;4156550;28;20029;-67
2021/12/24 01:53:08;;;;;;;20.67;14.18;;;8.50;99.90;;;;;;4160365;28;20029;-67
2021/12/24 01:55:10;;;;;;;19.73;13.82;;;8.40;99.90;;;;;;4158034;28;20032;-68
2021/12/24 01:57:12;;;;;;;19.77;13.63;;;8.50;99.90;;;;;;4157450;28;20033;-66
2021/12/24 01:59:14;;;;;;;19.30;13.68;;;8.50;99.90;;;;;;4162929;28;20029;-67
2021/12/24 02:01:14;;;;;;;20.23;13.65;;;8.50;99.90;;;;;;4155959;28;20088;-67
2021/12/24 02:03:16;;;;;;;23.65;14.63;;;8.50;99.90;;;;;;4160131;28;20030;-66
2021/12/24 02:05:17;;;;;;;23.92;14.95;;;8.50;99.90;;;;;;4157782;28;20078;-67
2021/12/24 02:07:17;;;;;;;22.00;13.38;;;8.50;99.90;;;;;;4159413;28;20473;-67
2021/12/24 02:09:18;;;;;;;20.48;13.65;;;8.50;99.90;;;;;;4160018;28;20061;-67
2021/12/24 02:11:19;;;;;;;21.42;13.80;;;8.50;99.90;;;;;;4154842;28;20048;-67
2021/12/24 02:13:19;;;;;;;24.60;15.82;;;8.60;99.90;;;;;;4161001;28;20112;-67
2021/12/24 02:15:45;;;;;;;21.75;14.77;;;8.60;99.90;;;;;;4158989;28;20033;-66
2021/12/24 02:29:46;;;;;;;19.40;13.32;;;8.60;99.90;;;;;;4165850;28;20033;-67
2021/12/24 02:31:47;;;;;;;20.70;14.10;;;8.70;99.90;;;;;;4170552;28;20083;-67
2021/12/24 02:33:48;;;;;;;25.63;15.02;;;8.70;99.90;;;;;;4171065;28;20030;-67
2021/12/24 02:35:49;;;;;;;20.63;13.25;;;8.70;99.90;;;;;;4166716;28;20034;-67
2021/12/24 02:37:50;;;;;;;20.45;13.70;;;8.70;99.90;;;;;;4170996;28;20377;-67
2021/12/24 02:40:20;;;;;;;20.30;13.52;;;8.70;99.90;;;;;;4170423;28;20037;-66
2021/12/24 02:42:22;;;;;;;19.48;13.15;;;8.70;99.90;;;;;;4165898;28;20091;-66
2021/12/24 02:44:22;;;;;;;20.52;12.80;;;8.70;99.90;;;;;;4158119;28;20029;-66
2021/12/24 02:46:39;;;;;;;22.08;14.30;;;8.80;99.90;;;;;;4165141;28;20033;-66
2021/12/24 02:55:34;;;;;;;22.88;14.40;;;8.80;99.90;;;;;;4165890;28;20487;-66
2021/12/24 02:57:37;;;;;;;20.25;12.98;;;8.80;99.90;;;;;;4166191;28;20040;-66
2021/12/24 02:59:47;;;;;;;19.98;14.55;;;8.80;99.90;;;;;;4159289;28;20029;-66
2021/12/24 03:01:48;;;;;;;24.65;15.65;;;8.80;99.90;;;;;;4157674;28;20107;-66
2021/12/24 03:03:51;;;;;;;22.48;14.57;;;8.80;99.90;;;;;;4157925;28;20033;-66
2021/12/24 03:05:51;;;;;;;24.52;15.25;;;8.80;99.90;;;;;;4159718;28;20026;-66
2021/12/24 03:07:52;;;;;;;22.88;15.45;;;8.80;99.90;;;;;;4155434;28;20422;-66
2021/12/24 03:09:53;;;;;;;25.65;15.88;;;8.80;99.90;;;;;;4163078;28;20037;-66
2021/12/24 03:11:54;;;;;;;23.60;15.73;;;8.80;99.90;;;;;;4156860;28;20035;-66
2021/12/24 03:13:55;;;;;;;26.75;16.13;;;8.80;99.90;;;;;;4157650;28;20034;-66
2021/12/24 03:15:57;;;;;;;29.13;17.08;;;8.90;99.90;;;;;;4158472;28;20539;-66
2021/12/24 03:17:59;;;;;;;26.60;16.60;;;8.90;99.90;;;;;;4155657;28;20021;-66
2021/12/24 03:20:04;;;;;;;25.60;15.85;;;8.90;99.90;;;;;;4158435;28;20383;-66
2021/12/24 03:26:15;;;;;;;21.85;16.05;;;8.90;99.90;;;;;;4161315;28;20022;-66
2021/12/24 03:28:16;;;;;;;26.45;16.50;;;8.90;99.90;;;;;;4157847;28;20095;-66
2021/12/24 03:30:17;;;;;;;27.58;16.42;;;8.90;99.90;;;;;;4142633;28;20468;-66
2021/12/24 03:32:17;;;;;;;27.55;16.73;;;8.90;99.90;;;;;;4160370;28;20061;-66
2021/12/24 03:34:20;;;;;;;27.17;17.13;;;8.90;99.90;;;;;;4159841;28;20125;-66
2021/12/24 03:36:23;;;;;;;24.55;16.63;;;8.90;99.90;;;;;;4162975;28;20029;-66
2021/12/24 03:38:23;;;;;;;28.92;17.75;;;8.90;99.90;;;;;;4166280;28;20422;-66
2021/12/24 03:40:24;;;;;;;23.33;15.52;;;8.90;99.90;;;;;;4168588;28;20084;-66
2021/12/24 03:42:25;;;;;;;25.35;15.20;;;8.90;99.90;;;;;;4169616;28;20033;-66
2021/12/24 03:44:32;;;;;;;23.40;15.63;;;8.90;99.90;;;;;;4169281;28;20057;-66
2021/12/24 03:46:52;;;;;;;23.40;15.70;;;8.90;99.90;;;;;;4168858;28;20060;-66
2021/12/24 03:48:57;;;;;;;23.42;14.82;;;8.90;99.90;;;;;;4169174;28;20029;-66
2021/12/24 03:51:18;;;;;;;22.90;15.88;;;8.90;99.90;;;;;;4161871;28;20034;-66
2021/12/24 03:54:55;;;;;;;27.17;16.67;;;8.90;99.90;;;;;;4169676;28;20028;-66
2021/12/24 03:55:48;;;;;;;23.63;16.33;;;8.90;99.90;;;;;;4168443;28;20087;-66
2021/12/24 03:57:49;;;;;;;26.42;16.55;;;8.90;99.90;;;;;;4169207;28;20030;-66
2021/12/24 03:59:49;;;;;;;30.70;17.98;;;8.90;99.90;;;;;;4169229;28;20034;-66
2021/12/24 04:01:50;;;;;;;28.52;18.05;;;9.00;99.90;;;;;;4160217;28;20034;-66
2021/12/24 04:03:51;;;;;;;25.92;17.20;;;8.90;99.90;;;;;;4152555;28;20030;-66
2021/12/24 04:05:52;;;;;;;31.50;17.92;;;8.90;99.90;;;;;;4152600;28;20474;-66
2021/12/24 04:07:52;;;;;;;32.38;17.30;;;9.00;99.90;;;;;;4168863;28;20105;-66
2021/12/24 04:10:06;;;;;;;32.20;18.38;;;9.00;99.90;;;;;;4168892;28;20093;-66
2021/12/24 04:12:07;;;;;;;30.13;18.65;;;8.90;99.90;;;;;;4168635;28;20472;-66
2021/12/24 04:14:07;;;;;;;32.55;19.17;;;9.00;99.90;;;;;;4167087;28;20087;-66
2021/12/24 04:16:08;;;;;;;33.38;18.90;;;9.00;99.90;;;;;;4152589;28;20393;-67
2021/12/24 04:18:29;;;;;;;30.65;19.05;;;9.00;99.90;;;;;;4154180;28;20465;-66
2021/12/24 04:25:09;;;;;;;35.05;20.10;;;9.00;99.90;;;;;;4155519;28;20053;-67
2021/12/24 04:27:09;;;;;;;32.45;18.90;;;9.00;99.90;;;;;;4160351;28;20096;-67
2021/12/24 04:29:10;;;;;;;33.75;19.73;;;9.00;99.90;;;;;;4159534;28;20079;-67
2021/12/24 04:31:11;;;;;;;36.22;20.55;;;9.00;99.90;;;;;;4157148;28;20037;-66
2021/12/24 04:33:28;;;;;;;29.73;18.65;;;9.00;99.90;;;;;;4162466;28;20026;-67
2021/12/24 04:39:50;;;;;;;36.83;21.58;;;9.10;99.90;;;;;;4159792;28;20036;-66
2021/12/24 04:51:27;;;;;;;32.50;19.35;;;9.10;99.90;;;;;;4166245;28;20029;-67
2021/12/24 05:04:55;;;;;;;36.35;21.70;;;9.20;99.90;;;;;;4167889;28;20029;-67
2021/12/24 05:07:05;;;;;;;37.47;21.02;;;9.20;99.90;;;;;;4167013;28;20132;-67
2021/12/24 05:09:11;;;;;;;32.97;19.67;;;9.20;99.90;;;;;;4162102;28;20412;-67
2021/12/24 05:11:13;;;;;;;37.50;20.65;;;9.20;99.90;;;;;;4165681;28;20392;-67
2021/12/24 05:13:16;;;;;;;33.28;19.35;;;9.20;99.90;;;;;;4153055;28;20037;-67
2021/12/24 05:15:18;;;;;;;39.90;21.35;;;9.20;99.90;;;;;;4163671;28;20419;-67
2021/12/24 05:17:30;;;;;;;31.27;19.98;;;9.20;99.90;;;;;;4144610;28;20028;-67
2021/12/24 05:21:52;;;;;;;35.83;20.42;;;9.30;99.90;;;;;;4164889;28;20026;-67
2021/12/24 05:23:52;;;;;;;37.75;21.88;;;9.30;99.90;;;;;;4158700;28;20591;-67
2021/12/24 05:25:53;;;;;;;32.55;19.35;;;9.30;99.90;;;;;;4150247;28;20037;-67
2021/12/24 05:27:55;;;;;;;34.50;19.92;;;9.30;99.90;;;;;;4157683;28;20033;-67
2021/12/24 05:29:56;;;;;;;32.60;19.13;;;9.30;99.90;;;;;;4164096;28;20037;-67
2021/12/24 05:31:57;;;;;;;33.35;19.13;;;9.30;99.90;;;;;;4158194;28;20079;-67
2021/12/24 05:33:58;;;;;;;39.95;20.70;;;9.30;99.90;;;;;;4163171;28;20034;-67
2021/12/24 05:35:58;;;;;;;31.55;19.33;;;9.30;99.90;;;;;;4159759;28;20074;-67
2021/12/24 05:37:59;;;;;;;32.72;20.23;;;9.40;99.90;;;;;;4158725;28;20037;-67
2021/12/24 05:39:59;;;;;;;37.13;21.38;;;9.40;99.90;;;;;;4161998;28;20065;-67
2021/12/24 05:42:01;;;;;;;37.28;20.25;;;9.40;99.90;;;;;;4161800;28;20060;-67
2021/12/24 05:44:03;;;;;;;35.13;20.40;;;9.30;99.90;;;;;;4159319;28;20025;-67
2021/12/24 05:46:04;;;;;;;38.25;21.23;;;9.40;99.90;;;;;;4158687;28;20407;-67
2021/12/24 05:48:04;;;;;;;34.47;19.85;;;9.40;99.90;;;;;;4162732;28;20088;-67
2021/12/24 05:50:06;;;;;;;31.85;20.00;;;9.40;99.90;;;;;;4161275;28;20362;-68
2021/12/24 05:52:06;;;;;;;31.45;18.45;;;9.40;99.90;;;;;;4162725;28;20427;-67
2021/12/24 05:54:08;;;;;;;32.67;19.10;;;9.40;99.90;;;;;;4164193;28;20061;-67
2021/12/24 05:56:09;;;;;;;31.42;17.02;;;9.40;99.90;;;;;;4160097;28;20022;-67
2021/12/24 05:58:10;;;;;;;33.35;19.70;;;9.40;99.90;;;;;;4162840;28;20033;-67
2021/12/24 06:00:11;;;;;;;31.90;18.65;;;9.40;99.90;;;;;;4160993;28;20120;-67
2021/12/24 06:02:12;;;;;;;33.13;18.20;;;9.40;99.90;;;;;;4162867;28;20036;-67
2021/12/24 06:04:12;;;;;;;33.45;18.58;;;9.40;99.90;;;;;;4154847;28;20396;-67
2021/12/24 06:06:13;;;;;;;36.08;18.23;;;9.30;99.90;;;;;;4160024;28;20029;-67
2021/12/24 06:08:14;;;;;;;33.65;19.30;;;9.40;99.90;;;;;;4156275;28;20029;-67
2021/12/24 06:10:14;;;;;;;34.40;19.10;;;9.40;99.90;;;;;;4162441;28;20040;-67
2021/12/24 06:12:15;;;;;;;28.98;17.17;;;9.40;99.90;;;;;;4162935;28;20041;-67
2021/12/24 06:14:16;;;;;;;30.85;18.17;;;9.40;99.90;;;;;;4164470;28;20494;-67
2021/12/24 06:16:18;;;;;;;33.80;18.67;;;9.40;99.90;;;;;;4155601;28;20392;-67
2021/12/24 06:18:29;;;;;;;35.70;20.42;;;9.40;99.90;;;;;;4155414;28;20076;-67
2021/12/24 06:20:30;;;;;;;34.28;19.75;;;9.50;99.90;;;;;;4162385;28;20033;-67
2021/12/24 06:22:30;;;;;;;30.23;18.42;;;9.40;99.90;;;;;;4162927;28;20025;-67
2021/12/24 06:24:31;;;;;;;31.65;19.05;;;9.40;99.90;;;;;;4164762;28;20036;-67
2021/12/24 06:26:32;;;;;;;29.75;18.48;;;9.40;99.90;;;;;;4164966;28;20025;-67
2021/12/24 06:28:33;;;;;;;36.42;18.38;;;9.40;99.90;;;;;;4166682;28;20033;-66
2021/12/24 06:30:34;;;;;;;30.70;18.13;;;9.50;99.90;;;;;;4174156;28;20502;-67
2021/12/24 06:32:35;;;;;;;29.73;17.50;;;9.40;99.90;;;;;;4155611;28;20116;-67
2021/12/24 06:34:35;;;;;;;28.95;18.05;;;9.40;99.90;;;;;;4159556;28;20029;-67
2021/12/24 06:36:40;;;;;;;34.10;19.90;;;9.50;99.90;;;;;;4163546;28;20029;-67
2021/12/24 06:38:41;;;;;;;35.15;19.60;;;9.50;99.90;;;;;;4166578;28;20061;-67
2021/12/24 06:40:41;;;;;;;33.22;17.60;;;9.50;99.90;;;;;;4161943;28;20373;-67
2021/12/24 06:42:42;;;;;;;31.60;19.23;;;9.40;99.90;;;;;;4167353;28;20037;-67
2021/12/24 06:44:43;;;;;;;39.40;20.63;;;9.50;99.90;;;;;;4163236;28;20095;-67
2021/12/24 06:46:43;;;;;;;29.63;18.52;;;9.50;99.90;;;;;;4160751;28;20050;-67
2021/12/24 06:48:45;;;;;;;36.90;19.63;;;9.50;99.90;;;;;;4158701;28;20064;-67
2021/12/24 06:50:46;;;;;;;38.47;19.70;;;9.50;99.90;;;;;;4161610;28;20021;-67
2021/12/24 06:52:46;;;;;;;32.42;18.20;;;9.50;99.90;;;;;;4164909;28;20044;-67
2021/12/24 06:54:47;;;;;;;28.92;17.83;;;9.40;99.90;;;;;;4161593;28;20030;-67
2021/12/24 06:56:48;;;;;;;27.35;17.17;;;9.50;99.90;;;;;;4160430;28;20049;-67
2021/12/24 06:58:49;;;;;;;26.58;16.38;;;9.50;99.90;;;;;;4159070;28;20037;-68
2021/12/24 07:00:49;;;;;;;34.55;18.13;;;9.50;99.90;;;;;;4144222;28;20046;-68
2021/12/24 07:02:51;;;;;;;26.65;16.98;;;9.50;99.90;;;;;;4159650;28;20041;-67
2021/12/24 07:04:52;;;;;;;31.23;18.25;;;9.50;99.90;;;;;;4125599;28;20158;-68
2021/12/24 07:06:53;;;;;;;29.90;17.80;;;9.50;99.90;;;;;;4168549;28;20476;-68
2021/12/24 07:08:54;;;;;;;39.97;18.73;;;9.50;99.90;;;;;;4161195;28;20570;-69
2021/12/24 07:10:55;;;;;;;25.27;15.52;;;9.50;99.90;;;;;;4148084;28;20065;-67
2021/12/24 07:12:56;;;;;;;28.63;16.38;;;9.50;99.90;;;;;;4164485;28;20033;-68
2021/12/24 07:14:57;;;;;;;29.42;17.50;;;9.50;99.90;;;;;;4164974;28;20030;-67
2021/12/24 07:16:57;;;;;;;34.35;18.00;;;9.50;99.90;;;;;;4164664;28;20034;-67
2021/12/24 07:18:58;;;;;;;34.33;18.15;;;9.40;99.90;;;;;;4164474;28;20033;-67
2021/12/24 07:20:59;;;;;;;28.17;16.42;;;9.40;99.90;;;;;;4157313;28;20034;-67
2021/12/24 07:22:59;;;;;;;34.35;18.55;;;9.50;99.90;;;;;;4142162;28;20442;-68
2021/12/24 07:25:00;;;;;;;33.97;18.15;;;9.40;99.90;;;;;;4159855;28;20026;-67
2021/12/24 07:27:01;;;;;;;30.08;16.58;;;9.40;99.90;;;;;;4160911;28;20044;-68
2021/12/24 07:29:02;;;;;;;27.85;16.55;;;9.50;99.90;;;;;;4155016;28;20033;-68
2021/12/24 07:31:03;;;;;;;35.13;18.30;;;9.50;99.90;;;;;;4162410;28;20495;-68
2021/12/24 07:33:03;;;;;;;30.73;17.38;;;9.50;99.90;;;;;;4162491;28;20042;-67
2021/12/24 07:35:05;;;;;;;30.35;16.60;;;9.50;99.90;;;;;;4148120;28;20022;-66
2021/12/24 07:37:05;;;;;;;30.90;16.98;;;9.50;99.90;;;;;;4161140;28;20868;-66
2021/12/24 07:39:06;;;;;;;31.25;17.05;;;9.50;99.90;;;;;;4166586;28;20085;-67
2021/12/24 07:41:07;;;;;;;26.45;16.15;;;9.50;99.90;;;;;;4163351;28;20409;-66
2021/12/24 07:43:08;;;;;;;30.38;16.00;;;9.50;99.90;;;;;;4164281;28;20034;-68
2021/12/24 07:45:10;;;;;;;26.67;16.42;;;9.50;99.90;;;;;;4162547;28;20507;-70
2021/12/24 07:47:17;;;;;;;34.55;18.08;;;9.50;99.90;;;;;;4139678;28;20034;-69
2021/12/24 07:49:29;;;;;;;26.52;14.40;;;9.50;99.90;;;;;;4148276;28;20033;-69
2021/12/24 07:53:59;;;;;;;24.08;15.60;;;9.60;99.90;;;;;;4170597;28;20029;-69
2021/12/24 07:56:00;;;;;;;30.75;17.52;;;9.50;99.90;;;;;;4135207;28;20069;-69
2021/12/24 07:58:01;;;;;;;27.02;16.63;;;9.50;99.90;;;;;;4155925;28;20030;-68
2021/12/24 08:00:05;;;;;;;30.98;17.55;;;9.50;99.90;;;;;;4164559;28;20061;-68
2021/12/24 08:02:10;;;;;;;28.08;16.45;;;9.50;99.90;;;;;;4164903;28;21464;-67
2021/12/24 08:04:13;;;;;;;29.85;16.48;;;9.60;99.90;;;;;;4163828;28;20427;-69
2021/12/24 08:06:14;;;;;;;31.65;16.73;;;9.60;99.90;;;;;;4170614;28;20040;-69
2021/12/24 08:08:18;;;;;;;29.40;17.83;;;9.50;99.90;;;;;;4166354;28;20022;-70
2021/12/24 08:10:20;;;;;;;27.63;15.73;;;9.50;99.90;;;;;;4161551;28;20511;-69
2021/12/24 08:12:21;;;;;;;36.80;18.15;;;9.50;99.90;;;;;;4150995;28;20030;-69
2021/12/24 08:14:23;;;;;;;37.97;16.80;;;9.60;99.90;;;;;;4172325;28;20067;-69
2021/12/24 08:16:28;;;;;;;29.80;17.10;;;9.50;99.90;;;;;;4168193;28;20029;-70
2021/12/24 08:18:29;;;;;;;30.35;17.90;;;9.60;99.90;;;;;;4167433;28;20379;-70
2021/12/24 08:20:30;;;;;;;27.08;17.25;;;9.50;99.90;;;;;;4163802;28;20053;-68
2021/12/24 08:22:31;;;;;;;32.55;18.00;;;9.50;99.90;;;;;;4153155;28;20025;-68
2021/12/24 08:24:32;;;;;;;31.42;16.90;;;9.50;99.90;;;;;;4167065;28;20480;-68
2021/12/24 08:26:32;;;;;;;28.15;17.17;;;9.50;99.90;;;;;;4165141;28;20060;-68
2021/12/24 08:28:33;;;;;;;34.47;17.92;;;9.50;99.90;;;;;;4165740;28;20464;-68
2021/12/24 08:30:33;;;;;;;31.05;16.23;;;9.50;99.90;;;;;;4166772;28;20029;-68
2021/12/24 08:32:38;;;;;;;37.78;20.13;;;9.50;99.90;;;;;;4164120;28;20385;-67
2021/12/24 08:34:39;;;;;;;28.55;17.58;;;9.50;99.90;;;;;;4167299;28;20049;-69
2021/12/24 08:36:39;;;;;;;31.05;18.15;;;9.50;99.90;;;;;;4171262;28;20101;-68
2021/12/24 08:38:40;;;;;;;31.98;17.95;;;9.50;99.90;;;;;;4170297;28;20041;-69
2021/12/24 08:40:41;;;;;;;29.48;18.85;;;9.50;99.90;;;;;;4158906;28;20025;-69
2021/12/24 08:42:42;;;;;;;32.13;17.70;;;9.60;99.90;;;;;;4169463;28;20498;-68
2021/12/24 08:44:42;;;;;;;35.50;19.15;;;9.50;99.90;;;;;;4172354;28;20025;-70
2021/12/24 08:46:46;;;;;;;28.67;17.58;;;9.50;99.90;;;;;;4166495;28;20040;-69
2021/12/24 08:48:49;;;;;;;33.30;18.77;;;9.60;99.90;;;;;;4150374;28;20070;-69
2021/12/24 08:50:50;;;;;;;40.30;19.35;;;9.50;99.90;;;;;;4152607;28;20045;-68
2021/12/24 08:52:54;;;;;;;42.55;22.00;;;9.60;99.90;;;;;;4170996;28;20496;-69
2021/12/24 08:54:55;;;;;;;38.15;19.75;;;9.60;99.90;;;;;;4151811;28;20109;-69
2021/12/24 08:56:56;;;;;;;33.90;19.42;;;9.50;99.90;;;;;;4167583;28;20041;-69
2021/12/24 08:58:57;;;;;;;33.45;19.85;;;9.60;99.90;;;;;;4167867;28;20029;-69
2021/12/24 09:00:59;;;;;;;34.90;19.40;;;9.50;99.90;;;;;;4166924;28;20045;-70
2021/12/24 09:03:03;;;;;;;36.83;19.20;;;9.50;99.90;;;;;;4144728;28;20086;-71
2021/12/24 09:05:06;;;;;;;27.88;17.65;;;9.60;99.90;;;;;;4168585;28;20025;-69
2021/12/24 09:07:10;;;;;;;34.45;18.83;;;9.50;99.90;;;;;;4168031;28;20482;-69
2021/12/24 09:09:11;;;;;;;35.25;19.10;;;9.50;99.90;;;;;;4150307;28;20065;-68
2021/12/24 09:11:12;;;;;;;32.08;18.05;;;9.60;99.90;;;;;;4168284;28;20038;-69
2021/12/24 09:13:12;;;;;;;31.75;17.13;;;9.50;99.90;;;;;;4168665;28;20021;-69
2021/12/24 09:15:15;;;;;;;32.95;18.08;;;9.50;99.90;;;;;;4168361;28;20029;-69
2021/12/24 09:17:16;;;;;;;26.40;15.70;;;9.60;99.90;;;;;;4168877;28;20033;-69
2021/12/24 09:19:22;;;;;;;27.70;15.70;;;9.60;99.90;;;;;;4156129;28;20026;-69
2021/12/24 09:21:23;;;;;;;27.33;16.17;;;9.60;99.90;;;;;;4160638;28;20037;-69
2021/12/24 09:23:24;;;;;;;35.30;18.02;;;9.60;99.90;;;;;;4169140;28;20451;-70
2021/12/24 09:25:25;;;;;;;34.17;17.70;;;9.60;99.90;;;;;;4170250;28;20046;-69
2021/12/24 09:27:26;;;;;;;32.20;17.50;;;9.60;99.90;;;;;;4172513;28;20021;-69
2021/12/24 09:29:27;;;;;;;35.63;17.83;;;9.60;99.90;;;;;;4151125;28;20045;-68
2021/12/24 09:31:33;;;;;;;36.13;18.45;;;9.60;99.90;;;;;;4166192;28;20460;-72
2021/12/24 09:33:33;;;;;;;28.42;15.85;;;9.60;99.90;;;;;;4145408;28;20026;-70
2021/12/24 09:35:34;;;;;;;32.55;16.88;;;9.60;99.90;;;;;;4165309;28;20020;-69
2021/12/24 09:37:35;;;;;;;32.85;16.80;;;9.60;99.90;;;;;;4152941;28;20022;-70
2021/12/24 09:39:35;;;;;;;32.58;16.70;;;9.60;99.90;;;;;;4168065;28;20492;-71
2021/12/24 09:41:42;;;;;;;26.08;15.13;;;9.60;99.90;;;;;;4168520;28;20060;-70
2021/12/24 09:43:43;;;;;;;28.38;15.82;;;9.70;99.90;;;;;;4165181;28;20022;-71
2021/12/24 09:45:44;;;;;;;34.55;18.75;;;9.60;99.90;;;;;;4164700;28;20515;-70
2021/12/24 09:47:45;;;;;;;36.08;17.17;;;9.60;99.90;;;;;;4167736;28;20071;-69
2021/12/24 09:49:46;;;;;;;31.33;15.23;;;9.60;99.90;;;;;;4159846;28;20392;-67
2021/12/24 09:51:51;;;;;;;29.25;15.13;;;9.60;99.90;;;;;;4159460;28;20052;-68
2021/12/24 09:53:52;;;;;;;29.08;16.02;;;9.70;99.90;;;;;;4159185;28;20038;-68
2021/12/24 09:55:53;;;;;;;28.73;15.82;;;9.60;99.90;;;;;;4158919;28;20685;-69
2021/12/24 09:57:54;;;;;;;31.35;16.20;;;9.60;99.90;;;;;;4160477;28;20026;-68
2021/12/24 09:59:54;;;;;;;28.42;14.25;;;9.60;99.90;;;;;;4162211;28;20121;-68
2021/12/24 10:02:00;;;;;;;31.48;16.10;;;9.60;99.90;;;;;;4163646;28;20060;-68
2021/12/24 10:04:07;;;;;;;38.83;16.27;;;9.70;99.90;;;;;;4162406;28;20114;-69
2021/12/24 10:06:08;;;;;;;33.88;16.35;;;9.60;99.90;;;;;;4159242;28;20084;-69
2021/12/24 10:08:18;;;;;;;34.72;14.68;;;9.60;99.90;;;;;;4161404;28;20021;-68
2021/12/24 10:10:28;;;;;;;33.63;16.50;;;9.60;99.90;;;;;;4161169;28;20380;-69
2021/12/24 10:12:28;;;;;;;29.73;14.80;;;9.60;99.90;;;;;;4159984;28;20026;-68
2021/12/24 10:14:36;;;;;;;35.45;15.20;;;9.60;99.90;;;;;;4161208;28;20053;-68
2021/12/24 10:16:41;;;;;;;31.55;14.55;;;9.60;99.90;;;;;;4156096;28;20522;-68
2021/12/24 10:18:47;;;;;;;27.60;13.60;;;9.60;99.90;;;;;;4158525;28;20033;-68
2021/12/24 10:20:58;;;;;;;32.78;15.18;;;9.60;99.90;;;;;;4167442;28;20037;-69
2021/12/24 10:22:58;;;;;;;32.05;13.93;;;9.60;99.90;;;;;;4163238;28;20037;-68
2021/12/24 10:25:09;;;;;;;31.90;14.80;;;9.60;99.90;;;;;;4164531;28;20484;-68
2021/12/24 10:27:10;;;;;;;29.65;13.38;;;9.70;99.90;;;;;;4164732;28;20038;-68
2021/12/24 10:29:17;;;;;;;37.80;14.25;;;9.70;99.90;;;;;;4160927;28;20385;-68
2021/12/24 10:31:21;;;;;;;23.38;12.73;;;9.70;99.90;;;;;;4166525;28;20040;-68
2021/12/24 10:33:22;;;;;;;25.40;12.32;;;9.70;99.90;;;;;;4163021;28;20388;-68
2021/12/24 10:35:28;;;;;;;29.65;13.45;;;9.70;99.90;;;;;;4161099;28;20072;-69
2021/12/24 10:37:30;;;;;;;23.85;11.98;;;9.70;99.90;;;;;;4156839;28;20442;-68
2021/12/24 10:39:41;;;;;;;33.95;13.98;;;9.70;99.90;;;;;;4145412;28;20134;-68
2021/12/24 10:41:46;;;;;;;26.75;12.55;;;9.70;99.90;;;;;;4161730;28;20044;-68
2021/12/24 10:43:47;;;;;;;24.10;12.52;;;9.70;99.90;;;;;;4156717;28;20046;-68
2021/12/24 10:45:47;;;;;;;33.75;12.68;;;9.70;99.90;;;;;;4161441;28;20029;-69
2021/12/24 10:47:48;;;;;;;31.17;14.95;;;9.70;99.90;;;;;;4166637;28;20072;-68
2021/12/24 10:50:32;;;;;;;30.48;13.75;;;9.70;99.90;;;;;;4162749;28;20477;-68
2021/12/24 10:54:56;;;;;;;17.83;11.15;;;9.70;99.90;;;;;;4159991;28;20523;-68
2021/12/24 10:57:17;;;;;;;29.73;12.70;;;9.70;99.90;;;;;;4162161;28;20412;-69
2021/12/24 10:59:41;;;;;;;26.92;12.38;;;9.70;99.90;;;;;;4157070;28;20168;-68
2021/12/24 11:01:41;;;;;;;29.88;13.10;;;9.70;99.90;;;;;;4162724;28;20548;-69
2021/12/24 11:03:44;;;;;;;28.30;12.25;;;9.70;99.90;;;;;;4164217;28;20036;-68
2021/12/24 11:05:46;;;;;;;26.90;12.27;;;9.70;99.90;;;;;;4161039;28;20025;-69
2021/12/24 11:07:47;;;;;;;26.00;13.18;;;9.70;99.90;;;;;;4163959;28;20124;-68
2021/12/24 11:10:26;;;;;;;24.55;13.13;;;9.70;99.90;;;;;;4161766;28;20752;-69
2021/12/24 11:12:38;;;;;;;31.55;13.43;;;9.70;99.90;;;;;;4142051;28;20481;-68
2021/12/24 11:14:38;;;;;;;27.35;14.18;;;9.70;99.90;;;;;;4159932;28;20380;-68
2021/12/24 11:16:45;;;;;;;28.65;14.18;;;9.60;99.90;;;;;;4158443;28;20157;-69
2021/12/24 11:18:56;;;;;;;28.95;13.93;;;9.70;99.90;;;;;;4163008;28;20491;-68
2021/12/24 11:21:00;;;;;;;28.55;14.50;;;9.70;99.90;;;;;;4159331;28;20088;-68
2021/12/24 11:23:03;;;;;;;24.63;13.93;;;9.70;99.90;;;;;;4162929;28;20033;-68
2021/12/24 11:25:04;;;;;;;25.13;12.77;;;9.70;99.90;;;;;;4161523;28;20032;-69
2021/12/24 11:27:04;;;;;;;31.17;13.90;;;9.70;99.90;;;;;;4154947;28;20037;-68
2021/12/24 11:29:05;;;;;;;27.13;13.35;;;9.80;99.90;;;;;;4153485;28;20037;-68
2021/12/24 11:31:17;;;;;;;23.48;11.88;;;9.70;99.90;;;;;;4161648;28;20068;-68
2021/12/24 11:33:21;;;;;;;25.58;13.85;;;9.70;99.90;;;;;;4156682;28;20032;-68
2021/12/24 11:35:22;;;;;;;31.77;13.20;;;9.80;99.90;;;;;;4155728;28;20527;-68
2021/12/24 11:37:23;;;;;;;28.55;14.50;;;9.80;99.90;;;;;;4152831;28;20030;-68
2021/12/24 11:39:24;;;;;;;27.63;12.85;;;9.70;99.90;;;;;;4160133;28;20033;-68
2021/12/24 11:41:29;;;;;;;27.50;12.68;;;9.70;99.90;;;;;;4159835;28;20105;-68
2021/12/24 11:43:36;;;;;;;29.27;14.18;;;9.80;99.90;;;;;;4159339;28;20024;-68
2021/12/24 11:45:37;;;;;;;25.05;12.98;;;9.70;99.90;;;;;;4161646;28;20060;-68
2021/12/24 11:47:38;;;;;;;32.53;14.38;;;9.70;99.90;;;;;;4157745;28;20029;-68
2021/12/24 11:49:40;;;;;;;29.05;14.52;;;9.70;99.90;;;;;;4163142;28;20033;-68
2021/12/24 11:51:41;;;;;;;28.67;13.80;;;9.70;99.90;;;;;;4160290;28;20029;-68
2021/12/24 11:53:43;;;;;;;27.60;14.40;;;9.70;99.90;;;;;;4162076;28;20056;-68
2021/12/24 11:55:48;;;;;;;30.02;14.27;;;9.70;99.90;;;;;;4161123;28;20037;-68
2021/12/24 11:58:01;;;;;;;28.30;13.38;;;9.70;99.90;;;;;;4163358;28;20052;-68
2021/12/24 12:00:10;;;;;;;31.35;15.02;;;9.70;99.90;;;;;;4165126;28;20140;-68
2021/12/24 12:02:34;;;;;;;35.63;14.75;;;9.70;99.90;;;;;;4165319;28;20026;-68
2021/12/24 12:04:34;;;;;;;;;;;9.70;99.90;;;;;;4163272;28;20026;-68
2021/12/24 12:06:35;;;;;;;23.63;13.77;;;9.70;99.90;;;;;;4162951;28;19941;-68
2021/12/24 12:08:40;;;;;;;21.88;12.82;;;9.70;99.90;;;;;;4166617;28;20033;-67
2021/12/24 12:10:59;;;;;;;29.58;15.15;;;9.70;99.90;;;;;;4166599;28;20034;-68